sensor_id;sensor_type;location;lat;lon;timestamp;P1;durP1;ratioP1;P2;durP2;ratioP2
72123;SDS011;63818;37.134;-8.548;2023-04-24T00:03:20;13.9;;;5.5;;
72123;SDS011;63818;37.134;-8.548;2023-04-24T00:08:07;14.0;;;5.3;;
72123;SDS011;63818;37.134;-8.548;2023-04-24T00:12:53;15.1;;;5.4;;
72123;SDS011;63818;37.134;-8.548;2023-04-24T00:17:40;13.7;;;5.5;;
72123;SDS011;63818;37.134;-8.548;2023-04-24T00:22:27;14.8;;;5.8;;
72123;SDS011;63818;37.134;-8.548;2023-04-24T00:27:42;13.5;;;6.1;;
72123;SDS011;63818;37.134;-8.548;2023-04-24T00:32:28;12.1;;;5.8;;
72123;SDS011;63818;37.134;-8.548;2023-04-24T00:37:15;13.4;;;5.4;;
72123;SDS011;63818;37.134;-8.548;2023-04-24T00:42:02;15.5;;;5.6;;
72123;SDS011;63818;37.134;-8.548;2023-04-24T00:46:48;16.8;;;5.7;;
72123;SDS011;63818;37.134;-8.548;2023-04-24T00:51:36;14.6;;;5.2;;
72123;SDS011;63818;37.134;-8.548;2023-04-24T00:56:25;12.6;;;5.2;;
72123;SDS011;63818;37.134;-8.548;2023-04-24T01:01:12;12.3;;;5.2;;
72123;SDS011;63818;37.134;-8.548;2023-04-24T01:06:00;12.8;;;5.4;;
72123;SDS011;63818;37.134;-8.548;2023-04-24T01:10:47;16.2;;;5.6;;
72123;SDS011;63818;37.134;-8.548;2023-04-24T01:15:35;13.4;;;5.3;;
72123;SDS011;63818;37.134;-8.548;2023-04-24T01:20:21;12.1;;;5.3;;
72123;SDS011;63818;37.134;-8.548;2023-04-24T01:25:09;12.0;;;5.3;;
72123;SDS011;63818;37.134;-8.548;2023-04-24T01:30:05;14.7;;;5.3;;
72123;SDS011;63818;37.134;-8.548;2023-04-24T01:34:50;12.4;;;5.1;;
72123;SDS011;63818;37.134;-8.548;2023-04-24T01:39:38;11.8;;;5.0;;
72123;SDS011;63818;37.134;-8.548;2023-04-24T01:44:25;13.1;;;5.2;;
72123;SDS011;63818;37.134;-8.548;2023-04-24T01:49:13;13.1;;;5.5;;
72123;SDS011;63818;37.134;-8.548;2023-04-24T01:54:02;14.2;;;5.8;;
72123;SDS011;63818;37.134;-8.548;2023-04-24T01:58:48;13.4;;;5.6;;
72123;SDS011;63818;37.134;-8.548;2023-04-24T02:03:38;12.4;;;5.3;;
72123;SDS011;63818;37.134;-8.548;2023-04-24T02:08:25;13.4;;;5.2;;
72123;SDS011;63818;37.134;-8.548;2023-04-24T02:13:12;13.3;;;5.2;;
72123;SDS011;63818;37.134;-8.548;2023-04-24T02:17:58;15.1;;;5.5;;
72123;SDS011;63818;37.134;-8.548;2023-04-24T02:22:45;14.5;;;6.0;;
72123;SDS011;63818;37.134;-8.548;2023-04-24T02:27:32;11.6;;;5.8;;
72123;SDS011;63818;37.134;-8.548;2023-04-24T02:32:21;13.4;;;5.5;;
72123;SDS011;63818;37.134;-8.548;2023-04-24T02:37:10;13.6;;;5.4;;
72123;SDS011;63818;37.134;-8.548;2023-04-24T02:41:57;11.2;;;5.3;;
72123;SDS011;63818;37.134;-8.548;2023-04-24T02:46:44;10.9;;;5.2;;
72123;SDS011;63818;37.134;-8.548;2023-04-24T02:51:31;12.2;;;5.4;;
72123;SDS011;63818;37.134;-8.548;2023-04-24T02:56:18;11.8;;;5.3;;
72123;SDS011;63818;37.134;-8.548;2023-04-24T03:01:05;10.2;;;4.9;;
72123;SDS011;63818;37.134;-8.548;2023-04-24T03:05:52;12.9;;;5.3;;
72123;SDS011;63818;37.134;-8.548;2023-04-24T03:10:38;15.9;;;5.6;;
72123;SDS011;63818;37.134;-8.548;2023-04-24T03:15:30;15.2;;;5.7;;
72123;SDS011;63818;37.134;-8.548;2023-04-24T03:20:19;14.3;;;5.6;;
72123;SDS011;63818;37.134;-8.548;2023-04-24T03:25:06;14.4;;;5.5;;
72123;SDS011;63818;37.134;-8.548;2023-04-24T03:29:54;12.7;;;5.5;;
72123;SDS011;63818;37.134;-8.548;2023-04-24T03:34:42;10.7;;;5.3;;
72123;SDS011;63818;37.134;-8.548;2023-04-24T03:39:28;13.3;;;5.6;;
72123;SDS011;63818;37.134;-8.548;2023-04-24T03:44:15;12.9;;;5.7;;
72123;SDS011;63818;37.134;-8.548;2023-04-24T03:49:02;10.6;;;5.4;;
72123;SDS011;63818;37.134;-8.548;2023-04-24T03:53:49;12.1;;;5.3;;
72123;SDS011;63818;37.134;-8.548;2023-04-24T03:58:35;11.4;;;5.1;;
72123;SDS011;63818;37.134;-8.548;2023-04-24T04:03:25;10.2;;;5.0;;
72123;SDS011;63818;37.134;-8.548;2023-04-24T04:08:12;11.3;;;5.4;;
72123;SDS011;63818;37.134;-8.548;2023-04-24T04:12:58;13.2;;;5.7;;
72123;SDS011;63818;37.134;-8.548;2023-04-24T04:17:45;15.6;;;5.5;;
72123;SDS011;63818;37.134;-8.548;2023-04-24T04:22:32;15.7;;;5.6;;
72123;SDS011;63818;37.134;-8.548;2023-04-24T04:27:19;11.4;;;5.6;;
72123;SDS011;63818;37.134;-8.548;2023-04-24T04:32:08;10.2;;;5.5;;
72123;SDS011;63818;37.134;-8.548;2023-04-24T04:36:55;11.7;;;5.4;;
72123;SDS011;63818;37.134;-8.548;2023-04-24T04:41:42;12.8;;;5.3;;
72123;SDS011;63818;37.134;-8.548;2023-04-24T04:46:29;14.1;;;5.3;;
72123;SDS011;63818;37.134;-8.548;2023-04-24T04:51:16;14.6;;;5.5;;
72123;SDS011;63818;37.134;-8.548;2023-04-24T04:56:03;14.7;;;5.6;;
72123;SDS011;63818;37.134;-8.548;2023-04-24T05:00:49;12.1;;;5.2;;
72123;SDS011;63818;37.134;-8.548;2023-04-24T05:05:37;10.9;;;5.2;;
72123;SDS011;63818;37.134;-8.548;2023-04-24T05:10:23;13.7;;;5.2;;
72123;SDS011;63818;37.134;-8.548;2023-04-24T05:15:11;14.1;;;5.2;;
72123;SDS011;63818;37.134;-8.548;2023-04-24T05:19:57;13.1;;;5.5;;
72123;SDS011;63818;37.134;-8.548;2023-04-24T05:24:47;14.3;;;5.7;;
72123;SDS011;63818;37.134;-8.548;2023-04-24T05:29:34;13.6;;;5.4;;
72123;SDS011;63818;37.134;-8.548;2023-04-24T05:34:21;12.8;;;5.1;;
72123;SDS011;63818;37.134;-8.548;2023-04-24T05:39:11;13.5;;;5.3;;
72123;SDS011;63818;37.134;-8.548;2023-04-24T05:43:58;12.2;;;5.3;;
72123;SDS011;63818;37.134;-8.548;2023-04-24T05:48:45;10.4;;;5.1;;
72123;SDS011;63818;37.134;-8.548;2023-04-24T05:53:34;11.5;;;5.5;;
72123;SDS011;63818;37.134;-8.548;2023-04-24T05:58:21;12.2;;;5.5;;
72123;SDS011;63818;37.134;-8.548;2023-04-24T06:03:08;10.7;;;5.2;;
72123;SDS011;63818;37.134;-8.548;2023-04-24T06:07:54;10.5;;;5.3;;
72123;SDS011;63818;37.134;-8.548;2023-04-24T06:12:42;9.4;;;4.9;;
72123;SDS011;63818;37.134;-8.548;2023-04-24T06:17:28;9.3;;;4.9;;
72123;SDS011;63818;37.134;-8.548;2023-04-24T06:22:15;11.0;;;5.2;;
72123;SDS011;63818;37.134;-8.548;2023-04-24T06:27:02;12.9;;;5.3;;
72123;SDS011;63818;37.134;-8.548;2023-04-24T06:31:49;13.5;;;5.6;;
72123;SDS011;63818;37.134;-8.548;2023-04-24T06:36:36;11.8;;;5.8;;
72123;SDS011;63818;37.134;-8.548;2023-04-24T06:41:25;11.3;;;5.5;;
72123;SDS011;63818;37.134;-8.548;2023-04-24T06:46:12;11.5;;;5.4;;
72123;SDS011;63818;37.134;-8.548;2023-04-24T06:50:59;11.9;;;5.5;;
72123;SDS011;63818;37.134;-8.548;2023-04-24T06:55:45;15.1;;;5.6;;
72123;SDS011;63818;37.134;-8.548;2023-04-24T07:00:32;15.2;;;5.8;;
72123;SDS011;63818;37.134;-8.548;2023-04-24T07:05:19;11.7;;;5.6;;
72123;SDS011;63818;37.134;-8.548;2023-04-24T07:10:06;10.4;;;5.3;;
72123;SDS011;63818;37.134;-8.548;2023-04-24T07:14:54;10.2;;;5.2;;
72123;SDS011;63818;37.134;-8.548;2023-04-24T07:19:42;10.5;;;5.3;;
72123;SDS011;63818;37.134;-8.548;2023-04-24T07:24:29;11.9;;;5.3;;
72123;SDS011;63818;37.134;-8.548;2023-04-24T07:29:16;11.0;;;5.3;;
72123;SDS011;63818;37.134;-8.548;2023-04-24T07:34:03;11.0;;;5.3;;
72123;SDS011;63818;37.134;-8.548;2023-04-24T07:38:49;12.5;;;5.3;;
72123;SDS011;63818;37.134;-8.548;2023-04-24T07:43:36;11.5;;;5.2;;
72123;SDS011;63818;37.134;-8.548;2023-04-24T07:48:24;11.7;;;5.4;;
72123;SDS011;63818;37.134;-8.548;2023-04-24T07:53:11;11.2;;;5.4;;
72123;SDS011;63818;37.134;-8.548;2023-04-24T07:58:07;10.2;;;5.5;;
72123;SDS011;63818;37.134;-8.548;2023-04-24T08:02:53;9.6;;;5.4;;
72123;SDS011;63818;37.134;-8.548;2023-04-24T08:07:59;14.6;;;5.6;;
72123;SDS011;63818;37.134;-8.548;2023-04-24T08:12:45;15.1;;;5.5;;
72123;SDS011;63818;37.134;-8.548;2023-04-24T08:17:42;10.5;;;5.5;;
72123;SDS011;63818;37.134;-8.548;2023-04-24T08:28:59;10.6;;;5.3;;
72123;SDS011;63818;37.134;-8.548;2023-04-24T08:39:00;12.7;;;5.8;;
72123;SDS011;63818;37.134;-8.548;2023-04-24T08:43:47;14.1;;;5.8;;
72123;SDS011;63818;37.134;-8.548;2023-04-24T08:48:35;14.3;;;5.9;;
72123;SDS011;63818;37.134;-8.548;2023-04-24T08:53:21;12.0;;;5.7;;
72123;SDS011;63818;37.134;-8.548;2023-04-24T08:58:19;14.5;;;6.2;;
72123;SDS011;63818;37.134;-8.548;2023-04-24T09:03:05;11.8;;;5.7;;
72123;SDS011;63818;37.134;-8.548;2023-04-24T09:15:00;11.5;;;5.6;;
72123;SDS011;63818;37.134;-8.548;2023-04-24T09:19:47;12.2;;;5.8;;
72123;SDS011;63818;37.134;-8.548;2023-04-24T09:24:36;12.0;;;5.6;;
72123;SDS011;63818;37.134;-8.548;2023-04-24T09:29:22;9.3;;;5.2;;
72123;SDS011;63818;37.134;-8.548;2023-04-24T09:34:08;10.1;;;5.3;;
72123;SDS011;63818;37.134;-8.548;2023-04-24T09:38:55;10.3;;;5.3;;
72123;SDS011;63818;37.134;-8.548;2023-04-24T09:43:43;9.8;;;5.1;;
72123;SDS011;63818;37.134;-8.548;2023-04-24T09:48:32;10.9;;;4.8;;
72123;SDS011;63818;37.134;-8.548;2023-04-24T09:53:19;10.3;;;4.9;;
72123;SDS011;63818;37.134;-8.548;2023-04-24T09:58:32;9.5;;;5.1;;
72123;SDS011;63818;37.134;-8.548;2023-04-24T10:03:22;9.6;;;5.2;;
72123;SDS011;63818;37.134;-8.548;2023-04-24T10:08:10;9.7;;;5.2;;
72123;SDS011;63818;37.134;-8.548;2023-04-24T10:12:57;11.3;;;5.0;;
72123;SDS011;63818;37.134;-8.548;2023-04-24T10:17:44;14.7;;;5.2;;
72123;SDS011;63818;37.134;-8.548;2023-04-24T10:22:32;14.3;;;5.3;;
72123;SDS011;63818;37.134;-8.548;2023-04-24T10:27:23;10.4;;;5.1;;
72123;SDS011;63818;37.134;-8.548;2023-04-24T10:32:14;9.5;;;5.1;;
72123;SDS011;63818;37.134;-8.548;2023-04-24T10:37:00;10.0;;;5.0;;
72123;SDS011;63818;37.134;-8.548;2023-04-24T10:41:48;9.3;;;5.1;;
72123;SDS011;63818;37.134;-8.548;2023-04-24T10:46:34;10.5;;;5.5;;
72123;SDS011;63818;37.134;-8.548;2023-04-24T10:51:24;11.2;;;5.6;;
72123;SDS011;63818;37.134;-8.548;2023-04-24T10:56:15;11.3;;;5.5;;
72123;SDS011;63818;37.134;-8.548;2023-04-24T11:01:04;12.5;;;5.4;;
72123;SDS011;63818;37.134;-8.548;2023-04-24T11:05:51;12.5;;;5.4;;
72123;SDS011;63818;37.134;-8.548;2023-04-24T11:10:39;13.2;;;5.6;;
72123;SDS011;63818;37.134;-8.548;2023-04-24T11:15:30;14.9;;;5.7;;
72123;SDS011;63818;37.134;-8.548;2023-04-24T11:20:18;14.4;;;5.5;;
72123;SDS011;63818;37.134;-8.548;2023-04-24T11:25:11;12.7;;;5.2;;
72123;SDS011;63818;37.134;-8.548;2023-04-24T11:30:02;11.5;;;5.4;;
72123;SDS011;63818;37.134;-8.548;2023-04-24T11:34:49;9.9;;;5.4;;
72123;SDS011;63818;37.134;-8.548;2023-04-24T11:39:38;13.0;;;5.6;;
72123;SDS011;63818;37.134;-8.548;2023-04-24T11:44:27;13.2;;;5.8;;
72123;SDS011;63818;37.134;-8.548;2023-04-24T11:49:15;12.0;;;5.7;;
72123;SDS011;63818;37.134;-8.548;2023-04-24T11:54:07;16.0;;;5.6;;
72123;SDS011;63818;37.134;-8.548;2023-04-24T11:58:55;18.0;;;6.0;;
72123;SDS011;63818;37.134;-8.548;2023-04-24T12:03:43;16.1;;;5.9;;
72123;SDS011;63818;37.134;-8.548;2023-04-24T12:08:36;12.0;;;5.5;;
72123;SDS011;63818;37.134;-8.548;2023-04-24T12:13:22;11.2;;;5.4;;
72123;SDS011;63818;37.134;-8.548;2023-04-24T12:18:13;11.9;;;5.4;;
72123;SDS011;63818;37.134;-8.548;2023-04-24T12:23:01;10.7;;;5.3;;
72123;SDS011;63818;37.134;-8.548;2023-04-24T12:32:44;13.9;;;5.2;;
72123;SDS011;63818;37.134;-8.548;2023-04-24T12:37:34;11.0;;;5.3;;
72123;SDS011;63818;37.134;-8.548;2023-04-24T12:42:27;9.6;;;5.1;;
72123;SDS011;63818;37.134;-8.548;2023-04-24T12:47:14;8.1;;;4.8;;
72123;SDS011;63818;37.134;-8.548;2023-04-24T12:52:02;9.9;;;5.2;;
72123;SDS011;63818;37.134;-8.548;2023-04-24T12:56:48;12.0;;;5.8;;
72123;SDS011;63818;37.134;-8.548;2023-04-24T13:01:34;13.8;;;6.0;;
72123;SDS011;63818;37.134;-8.548;2023-04-24T13:06:20;12.9;;;5.3;;
72123;SDS011;63818;37.134;-8.548;2023-04-24T13:11:05;10.4;;;5.1;;
72123;SDS011;63818;37.134;-8.548;2023-04-24T13:15:54;13.1;;;5.5;;
72123;SDS011;63818;37.134;-8.548;2023-04-24T13:20:40;15.0;;;5.5;;
72123;SDS011;63818;37.134;-8.548;2023-04-24T13:25:28;17.2;;;5.5;;
72123;SDS011;63818;37.134;-8.548;2023-04-24T13:30:14;18.9;;;5.8;;
72123;SDS011;63818;37.134;-8.548;2023-04-24T13:35:00;13.6;;;5.8;;
72123;SDS011;63818;37.134;-8.548;2023-04-24T13:39:46;12.8;;;5.9;;
72123;SDS011;63818;37.134;-8.548;2023-04-24T13:44:32;13.7;;;6.4;;
72123;SDS011;63818;37.134;-8.548;2023-04-24T13:49:19;12.9;;;6.5;;
72123;SDS011;63818;37.134;-8.548;2023-04-24T13:54:08;14.7;;;6.1;;
72123;SDS011;63818;37.134;-8.548;2023-04-24T13:58:54;16.3;;;5.9;;
72123;SDS011;63818;37.134;-8.548;2023-04-24T14:03:43;14.5;;;6.0;;
72123;SDS011;63818;37.134;-8.548;2023-04-24T14:08:29;12.1;;;5.5;;
72123;SDS011;63818;37.134;-8.548;2023-04-24T14:13:24;12.2;;;5.3;;
72123;SDS011;63818;37.134;-8.548;2023-04-24T14:18:15;15.6;;;5.9;;
72123;SDS011;63818;37.134;-8.548;2023-04-24T14:23:06;17.9;;;6.4;;
72123;SDS011;63818;37.134;-8.548;2023-04-24T14:27:52;15.7;;;6.1;;
72123;SDS011;63818;37.134;-8.548;2023-04-24T14:32:38;13.4;;;5.7;;
72123;SDS011;63818;37.134;-8.548;2023-04-24T14:37:24;14.4;;;6.0;;
72123;SDS011;63818;37.134;-8.548;2023-04-24T14:42:10;14.1;;;5.8;;
72123;SDS011;63818;37.134;-8.548;2023-04-24T14:47:00;12.1;;;5.5;;
72123;SDS011;63818;37.134;-8.548;2023-04-24T14:51:48;12.4;;;5.5;;
72123;SDS011;63818;37.134;-8.548;2023-04-24T14:56:34;14.2;;;5.5;;
72123;SDS011;63818;37.134;-8.548;2023-04-24T15:01:21;15.5;;;5.8;;
72123;SDS011;63818;37.134;-8.548;2023-04-24T15:06:07;14.0;;;6.2;;
72123;SDS011;63818;37.134;-8.548;2023-04-24T15:10:54;13.2;;;6.4;;
72123;SDS011;63818;37.134;-8.548;2023-04-24T15:15:40;12.7;;;6.4;;
72123;SDS011;63818;37.134;-8.548;2023-04-24T15:20:26;11.9;;;6.2;;
72123;SDS011;63818;37.134;-8.548;2023-04-24T15:25:13;12.1;;;5.9;;
72123;SDS011;63818;37.134;-8.548;2023-04-24T15:30:02;12.1;;;5.8;;
72123;SDS011;63818;37.134;-8.548;2023-04-24T15:34:48;12.9;;;5.9;;
72123;SDS011;63818;37.134;-8.548;2023-04-24T15:39:34;15.0;;;6.4;;
72123;SDS011;63818;37.134;-8.548;2023-04-24T15:44:21;14.5;;;6.2;;
72123;SDS011;63818;37.134;-8.548;2023-04-24T15:54:03;12.2;;;6.0;;
72123;SDS011;63818;37.134;-8.548;2023-04-24T15:58:49;10.3;;;5.4;;
72123;SDS011;63818;37.134;-8.548;2023-04-24T16:03:35;9.5;;;5.4;;
72123;SDS011;63818;37.134;-8.548;2023-04-24T16:08:21;10.3;;;5.5;;
72123;SDS011;63818;37.134;-8.548;2023-04-24T16:13:07;8.7;;;5.0;;
72123;SDS011;63818;37.134;-8.548;2023-04-24T16:17:53;10.8;;;5.1;;
72123;SDS011;63818;37.134;-8.548;2023-04-24T16:22:39;12.0;;;5.3;;
72123;SDS011;63818;37.134;-8.548;2023-04-24T16:27:26;9.5;;;5.3;;
72123;SDS011;63818;37.134;-8.548;2023-04-24T16:32:12;9.0;;;5.2;;
72123;SDS011;63818;37.134;-8.548;2023-04-24T16:37:37;10.7;;;5.3;;
72123;SDS011;63818;37.134;-8.548;2023-04-24T16:42:26;16.9;;;5.6;;
72123;SDS011;63818;37.134;-8.548;2023-04-24T16:47:12;16.3;;;5.4;;
72123;SDS011;63818;37.134;-8.548;2023-04-24T16:51:58;11.3;;;5.2;;
72123;SDS011;63818;37.134;-8.548;2023-04-24T16:56:45;10.0;;;5.0;;
72123;SDS011;63818;37.134;-8.548;2023-04-24T17:01:32;9.9;;;5.2;;
72123;SDS011;63818;37.134;-8.548;2023-04-24T17:06:18;11.6;;;5.1;;
72123;SDS011;63818;37.134;-8.548;2023-04-24T17:11:11;11.8;;;5.1;;
72123;SDS011;63818;37.134;-8.548;2023-04-24T17:15:59;11.1;;;5.1;;
72123;SDS011;63818;37.134;-8.548;2023-04-24T17:20:50;14.1;;;5.1;;
72123;SDS011;63818;37.134;-8.548;2023-04-24T17:25:38;12.9;;;4.9;;
72123;SDS011;63818;37.134;-8.548;2023-04-24T17:30:25;10.1;;;4.9;;
72123;SDS011;63818;37.134;-8.548;2023-04-24T17:35:22;10.5;;;5.2;;
72123;SDS011;63818;37.134;-8.548;2023-04-24T17:40:11;9.9;;;5.1;;
72123;SDS011;63818;37.134;-8.548;2023-04-24T17:45:01;10.2;;;4.9;;
72123;SDS011;63818;37.134;-8.548;2023-04-24T17:49:49;14.3;;;5.2;;
72123;SDS011;63818;37.134;-8.548;2023-04-24T17:54:35;16.1;;;5.8;;
72123;SDS011;63818;37.134;-8.548;2023-04-24T17:59:26;11.5;;;5.5;;
72123;SDS011;63818;37.134;-8.548;2023-04-24T18:04:12;13.0;;;5.4;;
72123;SDS011;63818;37.134;-8.548;2023-04-24T18:09:03;15.2;;;5.8;;
72123;SDS011;63818;37.134;-8.548;2023-04-24T18:13:54;14.4;;;5.7;;
72123;SDS011;63818;37.134;-8.548;2023-04-24T18:18:43;14.3;;;5.4;;
72123;SDS011;63818;37.134;-8.548;2023-04-24T18:23:35;13.6;;;5.3;;
72123;SDS011;63818;37.134;-8.548;2023-04-24T18:28:22;12.8;;;5.5;;
72123;SDS011;63818;37.134;-8.548;2023-04-24T18:33:13;10.7;;;5.5;;
72123;SDS011;63818;37.134;-8.548;2023-04-24T18:37:59;9.5;;;5.1;;
72123;SDS011;63818;37.134;-8.548;2023-04-24T18:42:47;10.4;;;5.1;;
72123;SDS011;63818;37.134;-8.548;2023-04-24T18:47:35;10.9;;;5.4;;
72123;SDS011;63818;37.134;-8.548;2023-04-24T18:52:24;11.0;;;5.4;;
72123;SDS011;63818;37.134;-8.548;2023-04-24T18:57:11;9.4;;;5.1;;
72123;SDS011;63818;37.134;-8.548;2023-04-24T19:01:58;8.4;;;4.8;;
72123;SDS011;63818;37.134;-8.548;2023-04-24T19:06:46;9.9;;;5.1;;
72123;SDS011;63818;37.134;-8.548;2023-04-24T19:11:32;10.7;;;5.3;;
72123;SDS011;63818;37.134;-8.548;2023-04-24T19:16:18;10.8;;;5.4;;
72123;SDS011;63818;37.134;-8.548;2023-04-24T19:21:04;12.2;;;5.5;;
72123;SDS011;63818;37.134;-8.548;2023-04-24T19:25:53;11.0;;;5.2;;
72123;SDS011;63818;37.134;-8.548;2023-04-24T19:30:38;12.6;;;4.9;;
72123;SDS011;63818;37.134;-8.548;2023-04-24T19:35:24;15.8;;;5.3;;
72123;SDS011;63818;37.134;-8.548;2023-04-24T19:40:21;12.1;;;5.3;;
72123;SDS011;63818;37.134;-8.548;2023-04-24T19:45:07;14.8;;;5.2;;
72123;SDS011;63818;37.134;-8.548;2023-04-24T19:49:53;16.5;;;5.2;;
72123;SDS011;63818;37.134;-8.548;2023-04-24T19:54:42;13.2;;;5.1;;
72123;SDS011;63818;37.134;-8.548;2023-04-24T19:59:29;13.2;;;5.7;;
72123;SDS011;63818;37.134;-8.548;2023-04-24T20:04:15;11.5;;;5.8;;
72123;SDS011;63818;37.134;-8.548;2023-04-24T20:09:01;10.3;;;5.2;;
72123;SDS011;63818;37.134;-8.548;2023-04-24T20:13:49;11.0;;;5.2;;
72123;SDS011;63818;37.134;-8.548;2023-04-24T20:18:38;9.5;;;5.1;;
72123;SDS011;63818;37.134;-8.548;2023-04-24T20:23:24;7.9;;;5.1;;
72123;SDS011;63818;37.134;-8.548;2023-04-24T20:29:02;12.1;;;5.1;;
72123;SDS011;63818;37.134;-8.548;2023-04-24T20:33:51;12.8;;;5.2;;
72123;SDS011;63818;37.134;-8.548;2023-04-24T20:38:39;10.4;;;5.4;;
72123;SDS011;63818;37.134;-8.548;2023-04-24T20:43:27;11.6;;;5.5;;
72123;SDS011;63818;37.134;-8.548;2023-04-24T20:48:13;15.6;;;5.6;;
72123;SDS011;63818;37.134;-8.548;2023-04-24T20:53:02;15.8;;;5.5;;
72123;SDS011;63818;37.134;-8.548;2023-04-24T20:57:48;12.2;;;5.1;;
72123;SDS011;63818;37.134;-8.548;2023-04-24T21:02:34;10.3;;;5.0;;
72123;SDS011;63818;37.134;-8.548;2023-04-24T21:07:21;10.3;;;5.3;;
72123;SDS011;63818;37.134;-8.548;2023-04-24T21:12:10;11.5;;;5.5;;
72123;SDS011;63818;37.134;-8.548;2023-04-24T21:16:56;10.8;;;5.4;;
72123;SDS011;63818;37.134;-8.548;2023-04-24T21:21:44;12.1;;;5.3;;
72123;SDS011;63818;37.134;-8.548;2023-04-24T21:26:31;12.9;;;5.4;;
72123;SDS011;63818;37.134;-8.548;2023-04-24T21:31:17;11.2;;;5.3;;
72123;SDS011;63818;37.134;-8.548;2023-04-24T21:36:03;10.9;;;5.2;;
72123;SDS011;63818;37.134;-8.548;2023-04-24T21:40:58;10.4;;;5.4;;
72123;SDS011;63818;37.134;-8.548;2023-04-24T21:45:45;11.4;;;5.4;;
72123;SDS011;63818;37.134;-8.548;2023-04-24T21:50:34;11.1;;;5.1;;
72123;SDS011;63818;37.134;-8.548;2023-04-24T21:55:21;9.9;;;5.1;;
72123;SDS011;63818;37.134;-8.548;2023-04-24T22:00:07;12.0;;;5.4;;
72123;SDS011;63818;37.134;-8.548;2023-04-24T22:04:59;12.3;;;5.4;;
72123;SDS011;63818;37.134;-8.548;2023-04-24T22:09:47;11.2;;;5.4;;
72123;SDS011;63818;37.134;-8.548;2023-04-24T22:14:33;10.8;;;5.5;;
72123;SDS011;63818;37.134;-8.548;2023-04-24T22:19:21;10.6;;;5.5;;
72123;SDS011;63818;37.134;-8.548;2023-04-24T22:24:10;9.2;;;5.6;;
72123;SDS011;63818;37.134;-8.548;2023-04-24T22:28:56;8.9;;;5.6;;
72123;SDS011;63818;37.134;-8.548;2023-04-24T22:33:45;10.7;;;5.5;;
72123;SDS011;63818;37.134;-8.548;2023-04-24T22:38:31;9.7;;;5.3;;
72123;SDS011;63818;37.134;-8.548;2023-04-24T22:43:20;7.9;;;5.0;;
72123;SDS011;63818;37.134;-8.548;2023-04-24T22:48:06;10.9;;;5.3;;
72123;SDS011;63818;37.134;-8.548;2023-04-24T22:53:00;14.1;;;5.7;;
72123;SDS011;63818;37.134;-8.548;2023-04-24T22:57:46;11.6;;;5.6;;
72123;SDS011;63818;37.134;-8.548;2023-04-24T23:02:33;9.4;;;5.3;;
72123;SDS011;63818;37.134;-8.548;2023-04-24T23:07:21;10.6;;;5.6;;
72123;SDS011;63818;37.134;-8.548;2023-04-24T23:12:08;10.7;;;5.9;;
72123;SDS011;63818;37.134;-8.548;2023-04-24T23:16:54;13.2;;;5.7;;
72123;SDS011;63818;37.134;-8.548;2023-04-24T23:21:42;15.3;;;5.6;;
72123;SDS011;63818;37.134;-8.548;2023-04-24T23:26:28;12.6;;;5.4;;
72123;SDS011;63818;37.134;-8.548;2023-04-24T23:31:14;10.3;;;5.6;;
72123;SDS011;63818;37.134;-8.548;2023-04-24T23:36:00;11.4;;;5.7;;
72123;SDS011;63818;37.134;-8.548;2023-04-24T23:40:49;12.9;;;5.8;;
72123;SDS011;63818;37.134;-8.548;2023-04-24T23:45:35;12.4;;;6.5;;
72123;SDS011;63818;37.134;-8.548;2023-04-24T23:50:21;14.4;;;6.6;;
72123;SDS011;63818;37.134;-8.548;2023-04-24T23:55:08;13.7;;;6.0;;
72123;SDS011;63818;37.134;-8.548;2023-04-24T23:59:57;10.9;;;5.8;;
